Heat Index SAI AWOS Graphical Display Untitled Document
Bertrand Chaffee Hospital Heliport (2NK6) Springville, New York, USA
250
17:14
24/02/2017
06
18
200V270
29.71
2800
1420
68(F), 20(C)
54(F), 12(C)
69 F
59%
BKN041 BKN047
10
N/A
0"
N/A
17:14 zulu Wind 250 at 06 Knots, Gusting 18 Knots, Altimeter 29.71
METAR K2NK6 241714Z AUTO 25006G18KT 200V270 10SM BKN041 BKN047 20/12 A2971 A02 P0000
METAR:
FAA Disclaimer--Advisory Use ONLY, not for flight info--
INFO:
Wind Direction:
Wind Speed:
Wind Gust:
Wind Variable:
Altimeter:
Dens Alt:
Elev:
Temp:
Dwpt:
Wind Chill
Rel Humidity:
Ceiling:
Visibility:
Prsnt Wea:
PCPN:
Remarks:
How to read the WebPage